Time;durP1;ratioP1;P1;durP2;ratioP2;P2;SDS_P1;SDS_P2;PMS_P1;PMS_P2;Temp;Humidity;BMP_temperature;BMP_pressure;BME280_temperature;BME280_humidity;BME280_pressure;Samples;Min_cycle;Max_cycle;Signal;HPM_P1;HPM_P2
2024/02/02 00:00:14;;;;;;;4.20;3.53;;;;;;;19.45;46.34;98901.47;5033590;28;20197;-25
2024/02/02 00:02:41;;;;;;;4.10;3.67;;;;;;;19.41;46.20;98889.31;5031384;28;20307;-26
2024/02/02 00:05:08;;;;;;;4.20;3.80;;;;;;;19.47;46.23;98894.78;5022906;28;20209;-25
2024/02/02 00:07:35;;;;;;;4.00;3.60;;;;;;;19.47;46.34;98893.13;5032126;28;20259;-25
2024/02/02 00:10:01;;;;;;;4.37;3.93;;;;;;;19.48;46.27;98884.66;5030838;28;20222;-25
2024/02/02 00:12:28;;;;;;;4.10;3.67;;;;;;;19.49;46.37;98895.75;5029006;28;20220;-25
2024/02/02 00:14:55;;;;;;;4.63;4.10;;;;;;;19.46;46.41;98878.63;5027348;28;20456;-25
2024/02/02 00:17:22;;;;;;;4.03;3.63;;;;;;;19.46;46.32;98881.19;5025553;28;20202;-25
2024/02/02 00:19:48;;;;;;;4.23;3.70;;;;;;;19.46;46.26;98882.84;5030111;28;20660;-25
2024/02/02 00:22:16;;;;;;;3.97;3.53;;;;;;;19.45;46.31;98884.50;5023003;28;20567;-25
2024/02/02 00:24:43;;;;;;;3.97;3.57;;;;;;;19.47;46.35;98892.22;5023059;28;20230;-25
2024/02/02 00:27:10;;;;;;;4.10;3.57;;;;;;;19.45;46.78;98891.28;5031051;28;20206;-25
2024/02/02 00:29:37;;;;;;;3.87;3.47;;;;;;;19.45;46.19;98892.13;5033868;28;20226;-26
2024/02/02 00:32:04;;;;;;;4.30;3.40;;;;;;;19.45;46.45;98888.72;5033437;28;20605;-25
2024/02/02 00:34:31;;;;;;;4.10;3.60;;;;;;;19.44;46.64;98880.19;5029342;28;20580;-25
2024/02/02 00:36:58;;;;;;;3.43;3.13;;;;;;;19.44;46.38;98887.84;5033192;28;20683;-25
2024/02/02 00:39:24;;;;;;;4.00;3.60;;;;;;;19.45;46.24;98899.78;5033511;28;20202;-25
2024/02/02 00:41:51;;;;;;;3.90;3.40;;;;;;;19.46;46.18;98895.56;5031268;28;20202;-25
2024/02/02 00:44:18;;;;;;;4.00;3.30;;;;;;;19.46;46.26;98893.91;5027949;28;20217;-25
2024/02/02 00:46:44;;;;;;;3.77;3.30;;;;;;;19.47;46.19;98894.78;5028520;28;20205;-25
2024/02/02 00:49:11;;;;;;;3.63;3.33;;;;;;;19.46;46.24;98890.47;5032856;28;20268;-27
2024/02/02 00:51:38;;;;;;;3.50;3.00;;;;;;;19.47;45.81;98887.13;5033698;28;20284;-25
2024/02/02 00:54:05;;;;;;;3.50;3.20;;;;;;;19.41;46.39;98882.56;5031740;28;20728;-25
2024/02/02 00:56:32;;;;;;;4.33;3.53;;;;;;;19.45;46.18;98888.72;5028494;28;20204;-25
2024/02/02 00:58:58;;;;;;;3.97;3.57;;;;;;;19.45;45.84;98904.03;5031739;28;20296;-25
2024/02/02 01:01:25;;;;;;;3.70;3.20;;;;;;;19.44;46.61;98903.13;5027928;28;20194;-26
2024/02/02 01:03:51;;;;;;;3.47;3.17;;;;;;;19.44;46.29;98902.25;5030710;28;20232;-27
2024/02/02 01:06:18;;;;;;;3.50;3.20;;;;;;;19.44;46.36;98899.69;5026502;28;20314;-25
2024/02/02 01:08:45;;;;;;;4.20;3.37;;;;;;;19.43;46.47;98896.28;5023804;28;20230;-26
2024/02/02 01:11:12;;;;;;;3.40;3.10;;;;;;;19.42;46.50;98893.66;5017182;28;20224;-25
2024/02/02 01:13:38;;;;;;;3.57;3.23;;;;;;;19.41;46.37;98892.75;5033233;28;20313;-29
2024/02/02 01:16:05;;;;;;;3.07;2.77;;;;;;;19.40;46.36;98885.91;5021329;28;20202;-25
2024/02/02 01:18:32;;;;;;;3.87;3.47;;;;;;;19.43;46.38;98893.75;5035783;28;20692;-25
2024/02/02 01:20:59;;;;;;;3.47;3.17;;;;;;;19.44;46.22;98899.69;5029749;28;20204;-25
2024/02/02 01:23:25;;;;;;;3.37;3.07;;;;;;;19.45;46.41;98899.78;5030921;28;20670;-25
2024/02/02 01:25:52;;;;;;;3.50;3.20;;;;;;;19.46;46.24;98895.56;5024391;28;20250;-25
2024/02/02 01:28:19;;;;;;;3.13;2.83;;;;;;;19.44;46.34;98882.75;5032679;28;20194;-25
2024/02/02 01:30:45;;;;;;;3.30;3.00;;;;;;;19.46;46.32;98880.28;5024325;28;20275;-25
2024/02/02 01:33:12;;;;;;;3.40;3.10;;;;;;;19.45;46.63;98878.53;5029630;28;20397;-25
2024/02/02 01:35:40;;;;;;;3.57;3.27;;;;;;;19.45;46.24;98878.53;5030976;28;20207;-25
2024/02/02 01:38:07;;;;;;;3.57;3.03;;;;;;;19.38;46.29;98872.19;5029480;28;20210;-27
2024/02/02 01:40:34;;;;;;;3.03;2.73;;;;;;;19.44;46.12;98879.31;5030542;28;20201;-25
2024/02/02 01:43:00;;;;;;;3.57;3.13;;;;;;;19.43;46.21;98878.44;5024233;28;20680;-25
2024/02/02 01:45:27;;;;;;;3.37;3.07;;;;;;;19.43;46.30;98875.00;5032148;28;20230;-26
2024/02/02 01:47:54;;;;;;;5.13;3.23;;;;;;;19.41;46.41;98872.38;5023599;28;20337;-25
2024/02/02 01:50:21;;;;;;;4.07;3.30;;;;;;;19.42;46.38;98874.13;5032044;28;20224;-25
2024/02/02 01:52:47;;;;;;;3.27;2.97;;;;;;;19.43;46.42;98875.00;5027161;28;20285;-26
2024/02/02 01:55:14;;;;;;;3.17;2.87;;;;;;;19.43;46.24;98878.44;5026340;28;20229;-29
2024/02/02 01:57:41;;;;;;;3.80;2.97;;;;;;;19.43;46.42;98873.34;5027895;28;20573;-25
2024/02/02 02:00:08;;;;;;;3.43;3.13;;;;;;;19.45;46.24;98873.44;5010742;28;20256;-25
2024/02/02 02:02:34;;;;;;;3.30;3.00;;;;;;;19.46;46.45;98875.19;5021056;28;20241;-28
2024/02/02 02:05:01;;;;;;;3.43;3.10;;;;;;;19.47;46.24;98869.28;5013210;28;20616;-25
2024/02/02 02:07:28;;;;;;;4.40;3.30;;;;;;;19.45;46.25;98861.53;5030745;28;20201;-25
2024/02/02 02:09:54;;;;;;;3.80;2.90;;;;;;;19.44;46.11;98856.34;5030069;28;20225;-25
2024/02/02 02:12:21;;;;;;;3.00;2.70;;;;;;;19.45;46.17;98853.91;5015584;28;20263;-25
2024/02/02 02:14:47;;;;;;;3.33;3.00;;;;;;;19.44;46.29;98844.50;5031536;28;20230;-25
2024/02/02 02:17:14;;;;;;;3.10;2.70;;;;;;;19.44;46.41;98851.25;5029854;28;20212;-25
2024/02/02 02:19:41;;;;;;;2.97;2.77;;;;;;;19.43;45.75;98844.41;5012117;28;20205;-26
2024/02/02 02:22:07;;;;;;;3.37;2.80;;;;;;;19.43;46.44;98854.59;5008967;28;20209;-25
2024/02/02 02:24:34;;;;;;;3.30;3.00;;;;;;;19.43;46.28;98849.50;5030667;28;20260;-25
2024/02/02 02:27:01;;;;;;;2.83;2.63;;;;;;;19.42;46.36;98842.66;5031655;28;20641;-25
2024/02/02 02:29:27;;;;;;;3.77;2.67;;;;;;;19.42;46.51;98843.50;4997860;28;20224;-25
2024/02/02 02:31:54;;;;;;;2.50;2.30;;;;;;;19.42;46.27;98843.50;5028190;28;20741;-25
2024/02/02 02:34:23;;;;;;;3.10;2.53;;;;;;;19.44;46.47;98835.97;5031773;28;20224;-25
2024/02/02 02:36:50;;;;;;;3.00;2.70;;;;;;;19.44;46.07;98830.84;5031620;28;20204;-25
2024/02/02 02:39:17;;;;;;;3.60;2.63;;;;;;;19.44;46.33;98836.84;5033097;28;20573;-25
2024/02/02 02:41:43;;;;;;;2.87;2.50;;;;;;;19.45;46.07;98846.25;5018872;28;20588;-25
2024/02/02 02:44:12;;;;;;;3.00;2.70;;;;;;;19.44;46.16;98843.59;5031504;28;20225;-25
2024/02/02 02:46:39;;;;;;;2.80;2.60;;;;;;;19.45;46.35;98845.38;5029132;28;20202;-25
2024/02/02 02:49:06;;;;;;;3.10;2.77;;;;;;;19.44;46.26;98841.94;5026800;28;20226;-27
2024/02/02 02:51:33;;;;;;;4.97;3.03;;;;;;;19.44;46.21;98841.06;5026047;28;20202;-25
2024/02/02 02:54:00;;;;;;;2.80;2.60;;;;;;;19.44;46.19;98839.41;5025279;28;20691;-27
2024/02/02 02:56:26;;;;;;;3.53;2.90;;;;;;;19.43;46.21;98837.66;5023859;28;20668;-25
2024/02/02 02:58:53;;;;;;;3.17;2.53;;;;;;;19.42;46.32;98837.56;5028779;28;20193;-26
2024/02/02 03:01:19;;;;;;;3.00;2.70;;;;;;;19.38;46.31;98825.41;5022856;28;20197;-25
2024/02/02 03:03:46;;;;;;;3.33;2.80;;;;;;;19.43;46.10;98844.41;5026450;28;20699;-25
2024/02/02 03:06:13;;;;;;;2.90;2.53;;;;;;;19.42;46.56;98837.56;5030729;28;20264;-26
2024/02/02 03:08:40;;;;;;;2.70;2.50;;;;;;;19.43;46.63;98839.31;5031224;28;20209;-25
2024/02/02 03:11:06;;;;;;;2.90;2.60;;;;;;;19.44;46.34;98835.97;5028995;28;20201;-25
2024/02/02 03:13:33;;;;;;;4.43;3.07;;;;;;;19.45;45.99;98830.09;5024504;28;20637;-25
2024/02/02 03:16:00;;;;;;;2.97;2.57;;;;;;;19.45;46.31;98830.09;5021862;28;20202;-25
2024/02/02 03:18:26;;;;;;;2.77;2.50;;;;;;;19.46;46.48;98834.38;5025626;28;20264;-25
2024/02/02 03:20:53;;;;;;;2.83;2.63;;;;;;;19.46;46.44;98824.19;5022069;28;20198;-27
2024/02/02 03:23:20;;;;;;;3.10;2.50;;;;;;;19.45;46.36;98825.00;5029871;28;20252;-25
2024/02/02 03:25:47;;;;;;;2.70;2.50;;;;;;;19.45;46.24;98827.53;5016244;28;20202;-25
2024/02/02 03:28:13;;;;;;;2.67;2.47;;;;;;;19.45;45.99;98825.00;5029335;28;20197;-25
2024/02/02 03:30:40;;;;;;;3.53;2.40;;;;;;;19.45;46.42;98827.53;5030539;28;20644;-27
2024/02/02 03:33:07;;;;;;;2.63;2.40;;;;;;;19.44;46.32;98826.66;5030433;28;20301;-25
2024/02/02 03:35:33;;;;;;;2.77;2.57;;;;;;;19.44;46.41;98841.06;5030778;28;20198;-25
2024/02/02 03:38:00;;;;;;;2.67;2.47;;;;;;;19.42;46.14;98838.41;5030758;28;20238;-26
2024/02/02 03:40:27;;;;;;;2.43;2.23;;;;;;;19.44;46.29;98838.50;5027226;28;20658;-29
2024/02/02 03:42:53;;;;;;;2.53;2.33;;;;;;;19.42;46.39;98837.56;5030111;28;20228;-25
2024/02/02 03:45:20;;;;;;;2.57;2.37;;;;;;;19.43;46.13;98846.97;5022497;28;20268;-25
2024/02/02 03:47:46;;;;;;;2.50;2.30;;;;;;;19.43;46.22;98852.94;5028668;28;20224;-25
2024/02/02 03:50:13;;;;;;;2.83;2.40;;;;;;;19.45;46.34;98853.03;5032343;28;20223;-27
2024/02/02 03:52:40;;;;;;;3.20;2.60;;;;;;;19.46;46.14;98852.25;5020879;28;20267;-25
2024/02/02 03:55:07;;;;;;;2.27;2.07;;;;;;;19.46;46.28;98858.22;5028070;28;20233;-25
2024/02/02 03:57:34;;;;;;;2.50;2.30;;;;;;;19.47;46.17;98853.97;5031028;28;20233;-25
2024/02/02 04:00:00;;;;;;;2.97;2.50;;;;;;;19.46;46.18;98849.69;5028965;28;20234;-25
2024/02/02 04:02:27;;;;;;;2.50;2.30;;;;;;;19.46;46.28;98857.34;5030698;28;20234;-25
2024/02/02 04:04:54;;;;;;;2.60;2.40;;;;;;;19.47;46.24;98864.19;5031823;28;20428;-25
2024/02/02 04:07:21;;;;;;;2.80;2.10;;;;;;;19.45;46.59;98869.19;5032928;28;20264;-25
2024/02/02 04:09:48;;;;;;;3.07;2.50;;;;;;;19.45;46.42;98879.38;5025817;28;20226;-25
2024/02/02 04:12:14;;;;;;;2.53;2.30;;;;;;;19.44;46.15;98881.84;5025717;28;20229;-25
2024/02/02 04:14:41;;;;;;;2.47;2.27;;;;;;;19.45;46.33;98881.09;5008348;28;20228;-25
2024/02/02 04:17:08;;;;;;;2.50;2.23;;;;;;;19.45;46.25;98870.88;5033640;28;20197;-25
2024/02/02 04:19:34;;;;;;;2.40;2.20;;;;;;;19.44;45.89;98874.19;5028814;28;20253;-29
2024/02/02 04:22:01;;;;;;;2.40;2.20;;;;;;;19.44;46.18;98882.75;5032335;28;20685;-25
2024/02/02 04:24:28;;;;;;;2.93;2.63;;;;;;;19.44;46.23;98890.38;5022040;28;20276;-25
2024/02/02 04:26:54;;;;;;;2.57;2.07;;;;;;;19.43;46.19;98887.75;5029687;28;20285;-26
2024/02/02 04:29:21;;;;;;;3.07;2.47;;;;;;;19.46;46.16;98885.38;5029457;28;20312;-25
2024/02/02 04:31:48;;;;;;;2.63;2.43;;;;;;;19.47;46.12;98892.22;5019943;28;20744;-25
2024/02/02 04:34:14;;;;;;;2.23;2.03;;;;;;;19.47;46.18;98897.31;5029502;28;20213;-25
2024/02/02 04:36:41;;;;;;;2.47;2.27;;;;;;;19.48;46.22;98894.00;5021743;28;20210;-25
2024/02/02 04:39:08;;;;;;;2.27;2.07;;;;;;;19.46;46.50;98898.13;5027795;28;20197;-25
2024/02/02 04:41:35;;;;;;;2.43;2.20;;;;;;;19.46;46.01;98893.03;5025834;28;20255;-31
2024/02/02 04:44:02;;;;;;;2.90;2.43;;;;;;;19.47;46.17;98899.88;5033911;28;20213;-25
2024/02/02 04:46:28;;;;;;;2.40;2.20;;;;;;;19.46;46.16;98898.13;5023078;28;20205;-25
2024/02/02 04:48:55;;;;;;;2.33;2.13;;;;;;;19.45;46.13;98902.34;5031304;28;20246;-25
2024/02/02 04:51:22;;;;;;;2.20;2.00;;;;;;;19.45;46.27;98904.88;5012555;28;20677;-25
2024/02/02 04:53:49;;;;;;;2.60;2.37;;;;;;;19.45;46.25;98910.00;5032538;28;20268;-25
2024/02/02 04:56:15;;;;;;;2.83;2.50;;;;;;;19.45;46.24;98904.88;5021780;28;20201;-25
2024/02/02 04:58:42;;;;;;;2.37;2.17;;;;;;;19.45;46.19;98907.44;5024971;28;20589;-25
2024/02/02 05:01:09;;;;;;;2.40;2.20;;;;;;;19.43;46.15;98895.41;5024398;28;20194;-25
2024/02/02 05:03:36;;;;;;;2.40;2.20;;;;;;;19.45;46.27;98904.88;5026975;28;20218;-25
2024/02/02 05:06:03;;;;;;;2.80;2.30;;;;;;;19.39;46.16;98894.31;5022557;28;20583;-25
2024/02/02 05:08:30;;;;;;;2.43;2.20;;;;;;;19.46;46.15;98901.56;5029100;28;20210;-26
2024/02/02 05:10:56;;;;;;;2.40;2.20;;;;;;;19.48;46.11;98907.63;5031276;28;20275;-27
2024/02/02 05:13:23;;;;;;;3.57;2.43;;;;;;;19.45;46.17;98891.28;5031493;28;20740;-25
2024/02/02 05:15:50;;;;;;;2.53;2.30;;;;;;;19.48;46.14;98892.31;5030679;28;20726;-25
2024/02/02 05:18:17;;;;;;;2.30;2.10;;;;;;;19.48;46.70;98897.41;5032391;28;20198;-25
2024/02/02 05:20:46;;;;;;;3.00;2.53;;;;;;;19.41;46.31;98885.09;5022275;28;20198;-25
2024/02/02 05:23:12;;;;;;;3.37;2.40;;;;;;;19.48;46.30;98907.63;5026515;28;20261;-26
2024/02/02 05:25:39;;;;;;;2.70;2.40;;;;;;;19.47;46.26;98895.66;5026691;28;20259;-31
2024/02/02 05:28:06;;;;;;;2.57;2.37;;;;;;;19.47;46.32;98897.31;5021782;28;20657;-26
2024/02/02 05:30:32;;;;;;;4.47;2.77;;;;;;;19.46;46.46;98908.31;5023642;28;20751;-25
2024/02/02 05:32:59;;;;;;;2.30;2.10;;;;;;;19.47;46.42;98915.19;5038975;28;20271;-25
2024/02/02 05:35:26;;;;;;;3.43;2.23;;;;;;;19.47;46.34;98915.19;5031364;28;20232;-25
2024/02/02 05:37:53;;;;;;;2.33;2.10;;;;;;;19.47;46.24;98916.06;5026526;28;20222;-25
2024/02/02 05:40:19;;;;;;;2.90;2.20;;;;;;;19.47;46.26;98915.19;5020161;28;20230;-25
2024/02/02 05:42:46;;;;;;;2.97;2.67;;;;;;;19.47;46.07;98917.72;5030226;28;20252;-30
2024/02/02 05:45:13;;;;;;;2.63;2.43;;;;;;;19.47;46.13;98927.94;5002631;28;20639;-27
2024/02/02 05:47:39;;;;;;;2.90;2.60;;;;;;;19.49;45.26;98921.25;5028652;28;20198;-25
2024/02/02 05:50:06;;;;;;;4.87;2.83;;;;;;;19.47;45.95;98918.63;5025419;28;20649;-27
2024/02/02 05:52:33;;;;;;;3.40;2.50;;;;;;;19.49;46.14;98917.06;5030601;28;20212;-25
2024/02/02 05:54:59;;;;;;;3.13;2.67;;;;;;;19.49;46.03;98919.59;5020970;28;20206;-25
2024/02/02 05:57:26;;;;;;;2.70;2.50;;;;;;;19.48;45.64;98920.38;5019186;28;20469;-25
2024/02/02 05:59:53;;;;;;;3.53;2.60;;;;;;;19.47;46.66;98921.16;5023521;28;20200;-25
2024/02/02 06:02:21;;;;;;;5.40;3.50;;;;;;;19.46;45.43;98916.88;5020721;28;20206;-25
2024/02/02 06:04:48;;;;;;;9.87;4.40;;;;;;;19.44;43.62;98917.53;5024513;28;20217;-25
2024/02/02 06:07:15;;;;;;;8.77;5.47;;;;;;;19.41;42.69;98917.38;5014773;28;20202;-26
2024/02/02 06:09:42;;;;;;;8.13;5.10;;;;;;;19.39;42.00;98909.63;5019626;28;20206;-25
2024/02/02 06:12:09;;;;;;;7.00;5.27;;;;;;;19.38;41.80;98909.53;5031973;28;20201;-25
2024/02/02 06:14:35;;;;;;;8.03;5.67;;;;;;;19.35;41.97;98902.59;5030352;28;20229;-25
2024/02/02 06:17:03;;;;;;;7.57;5.90;;;;;;;19.34;41.97;98902.50;5030495;28;20201;-25
2024/02/02 06:19:29;;;;;;;10.73;6.53;;;;;;;19.33;42.13;98901.59;5021588;28;20207;-26
2024/02/02 06:21:56;;;;;;;11.97;6.43;;;;;;;19.31;42.03;98904.88;5024315;28;20244;-25
2024/02/02 06:24:24;;;;;;;12.50;6.60;;;;;;;19.30;41.16;98896.34;5023519;28;20221;-25
2024/02/02 06:26:51;;;;;;;10.17;6.43;;;;;;;19.30;40.95;98898.03;5024333;28;20426;-25
2024/02/02 06:29:18;;;;;;;9.23;5.80;;;;;;;19.26;40.66;98907.09;5029233;28;20252;-27
2024/02/02 06:31:44;;;;;;;11.23;6.50;;;;;;;19.26;41.06;98912.22;5027119;28;20590;-25
2024/02/02 06:34:11;;;;;;;9.40;6.00;;;;;;;19.24;40.13;98921.41;5030765;28;20256;-25
2024/02/02 06:36:38;;;;;;;11.70;5.80;;;;;;;19.24;40.27;98917.97;5013117;28;20493;-25
2024/02/02 06:39:05;;;;;;;11.43;6.17;;;;;;;19.23;39.90;98926.44;5026874;28;20198;-25
2024/02/02 06:41:31;;;;;;;11.00;6.30;;;;;;;19.22;39.66;98922.97;5023098;28;20271;-25
2024/02/02 06:43:58;;;;;;;9.97;6.40;;;;;;;19.19;40.23;98922.81;5028411;28;20249;-25
2024/02/02 06:46:25;;;;;;;8.77;5.83;;;;;;;19.18;40.62;98926.16;5012052;28;20201;-25
2024/02/02 06:48:51;;;;;;;8.80;5.70;;;;;;;19.18;39.65;98928.69;5027856;28;20626;-25
2024/02/02 06:51:18;;;;;;;10.43;6.23;;;;;;;19.17;39.58;98929.50;5023680;28;20221;-25
2024/02/02 06:53:45;;;;;;;9.57;5.90;;;;;;;19.14;39.03;98933.50;5031422;28;20217;-26
2024/02/02 06:56:35;;;;;;;9.37;6.23;;;;;;;19.13;38.58;98934.31;5013683;28;20202;-25
2024/02/02 06:59:01;;;;;;;12.03;6.03;;;;;;;19.11;38.82;98941.88;5021651;28;20454;-27
2024/02/02 07:01:28;;;;;;;12.93;5.93;;;;;;;19.09;39.94;98937.44;5027104;28;20198;-25
2024/02/02 07:03:55;;;;;;;15.63;6.30;;;;;;;19.12;38.59;98955.47;5002984;28;20226;-26
2024/02/02 07:06:22;;;;;;;10.17;6.37;;;;;;;19.11;38.17;98958.81;5001649;28;20198;-25
2024/02/02 07:08:49;;;;;;;11.37;6.37;;;;;;;19.09;37.80;98963.81;5015536;28;20573;-25
2024/02/02 07:11:36;;;;;;;12.27;6.00;;;;;;;19.04;38.60;98957.53;5020079;28;20301;-25
2024/02/02 07:14:06;;;;;;;11.00;6.10;;;;;;;19.04;39.29;98964.31;5002943;28;20226;-25
2024/02/02 07:16:33;;;;;;;10.67;6.03;;;;;;;19.03;39.80;98967.66;5021265;28;20198;-25
2024/02/02 07:18:59;;;;;;;8.30;5.70;;;;;;;19.04;40.29;98964.31;5025826;28;20198;-25
2024/02/02 07:21:30;;;;;;;12.37;5.90;;;;;;;19.02;40.61;98965.91;5024303;28;20194;-25
2024/02/02 07:23:57;;;;;;;9.00;5.23;;;;;;;19.03;41.03;98952.34;5019181;28;20222;-25
2024/02/02 07:26:26;;;;;;;11.03;4.93;;;;;;;19.02;41.17;98948.94;5020469;28;20226;-26
2024/02/02 07:28:53;;;;;;;9.40;5.30;;;;;;;19.05;41.62;98958.44;5025677;28;20984;-25
2024/02/02 07:31:33;;;;;;;9.20;5.33;;;;;;;19.08;41.81;98953.53;5019770;28;20218;-25
2024/02/02 07:34:28;;;;;;;7.37;5.23;;;;;;;19.10;41.87;98944.31;5027960;28;20213;-25
2024/02/02 07:36:55;;;;;;;7.27;4.87;;;;;;;19.12;42.04;98940.19;5026872;28;20230;-27
2024/02/02 07:39:30;;;;;;;10.63;5.17;;;;;;;19.14;41.99;98943.72;5034109;28;20201;-25
2024/02/02 07:42:00;;;;;;;7.90;4.90;;;;;;;19.13;41.98;98937.72;5004453;28;20252;-25
2024/02/02 07:44:27;;;;;;;7.20;4.23;;;;;;;19.17;42.26;98936.25;5033763;28;20268;-26
2024/02/02 07:46:54;;;;;;;7.70;4.60;;;;;;;19.18;42.53;98931.25;5026462;28;20301;-25
2024/02/02 07:49:20;;;;;;;9.77;4.70;;;;;;;19.20;41.96;98928.78;5010757;28;20203;-25
2024/02/02 07:51:47;;;;;;;8.43;4.20;;;;;;;19.20;42.33;98927.13;5026456;28;20256;-25
2024/02/02 07:54:14;;;;;;;5.93;3.87;;;;;;;19.21;42.89;98922.91;5026154;28;20218;-25
2024/02/02 07:56:41;;;;;;;8.53;3.80;;;;;;;19.22;42.37;98919.56;5031339;28;20201;-25
2024/02/02 07:59:07;;;;;;;5.20;3.57;;;;;;;19.23;42.76;98928.97;5020743;28;20530;-25
2024/02/02 08:01:35;;;;;;;9.13;4.17;;;;;;;19.23;42.67;98927.31;5032383;28;20624;-25
2024/02/02 08:04:02;;;;;;;8.40;3.73;;;;;;;19.24;42.89;98926.50;5028364;28;20218;-26
2024/02/02 08:06:29;;;;;;;4.80;3.50;;;;;;;19.24;43.30;98931.63;5029518;28;20198;-25
2024/02/02 08:08:57;;;;;;;4.33;3.30;;;;;;;19.26;42.56;98924.06;5030764;28;20201;-25
2024/02/02 08:11:25;;;;;;;4.57;3.20;;;;;;;19.27;42.58;98928.44;5028978;28;20222;-25
2024/02/02 08:13:52;;;;;;;4.17;3.53;;;;;;;19.29;43.20;98926.81;5030060;28;20237;-25
2024/02/02 08:16:19;;;;;;;5.53;3.60;;;;;;;19.30;42.93;98928.63;5019455;28;20209;-25
2024/02/02 08:18:45;;;;;;;5.57;3.50;;;;;;;19.29;43.32;98924.28;5032768;28;20208;-25
2024/02/02 08:21:12;;;;;;;4.60;3.50;;;;;;;19.31;43.12;98920.16;5025237;28;20289;-25
2024/02/02 08:23:40;;;;;;;5.10;3.00;;;;;;;19.32;43.18;98914.25;5024951;28;20229;-25
2024/02/02 08:26:07;;;;;;;4.43;3.13;;;;;;;19.33;42.91;98923.69;5028554;28;20252;-25
2024/02/02 08:28:33;;;;;;;5.63;3.23;;;;;;;19.33;43.20;98931.34;5028437;28;20198;-25
2024/02/02 08:31:14;;;;;;;4.17;3.13;;;;;;;19.33;43.33;98927.09;5018257;28;20229;-25
2024/02/02 08:33:40;;;;;;;6.10;3.03;;;;;;;19.34;43.29;98922.91;5006056;28;20249;-25
2024/02/02 08:36:08;;;;;;;4.23;3.20;;;;;;;19.32;43.31;98917.72;5033630;28;20197;-25
2024/02/02 08:38:35;;;;;;;6.63;3.00;;;;;;;19.36;43.80;98931.53;5015296;28;20267;-25
2024/02/02 08:41:03;;;;;;;4.97;3.27;;;;;;;19.36;43.42;98926.44;4995599;28;20624;-25
2024/02/02 08:43:30;;;;;;;3.53;2.60;;;;;;;19.38;43.73;98924.81;5012462;28;20213;-26
2024/02/02 08:46:10;;;;;;;6.13;2.87;;;;;;;19.37;43.59;98921.41;5005576;28;20288;-25
2024/02/02 08:48:46;;;;;;;4.10;2.70;;;;;;;19.40;43.76;98913.97;5021818;28;20205;-25
2024/02/02 08:51:22;;;;;;;4.90;2.87;;;;;;;19.40;43.72;98915.63;5019978;28;20217;-25
2024/02/02 08:54:01;;;;;;;3.63;3.00;;;;;;;19.36;43.93;98901.78;5028964;28;20304;-25
2024/02/02 08:56:27;;;;;;;5.17;2.80;;;;;;;19.42;43.81;98906.41;4999690;28;20618;-25
2024/02/02 08:58:54;;;;;;;5.83;3.00;;;;;;;19.40;43.92;98901.22;5011036;28;20241;-28
2024/02/02 09:01:36;;;;;;;4.03;2.90;;;;;;;19.42;43.82;98901.31;4999499;28;20252;-25
2024/02/02 09:04:04;;;;;;;3.27;2.47;;;;;;;19.43;44.06;98897.94;5026015;28;20639;-26
2024/02/02 09:06:37;;;;;;;4.87;3.20;;;;;;;19.41;44.15;98892.75;5019733;28;20669;-25
2024/02/02 09:09:05;;;;;;;4.03;2.73;;;;;;;19.42;44.16;98896.19;5022531;28;20276;-25
2024/02/02 09:11:32;;;;;;;3.93;2.90;;;;;;;19.42;44.06;98893.66;5012925;28;20221;-25
2024/02/02 09:14:07;;;;;;;5.60;2.63;;;;;;;19.41;44.25;98890.22;5012040;28;20229;-25
2024/02/02 09:16:41;;;;;;;3.60;2.67;;;;;;;19.41;44.32;98894.41;5024084;28;20264;-26
2024/02/02 09:19:26;;;;;;;3.30;2.73;;;;;;;19.40;44.39;98900.31;5032080;28;20208;-25
2024/02/02 09:21:55;;;;;;;5.90;3.00;;;;;;;19.41;44.17;98902.06;5030380;28;20194;-25
2024/02/02 09:24:55;;;;;;;3.90;2.90;;;;;;;19.42;44.30;98901.31;5029950;28;20229;-25
2024/02/02 09:27:35;;;;;;;4.00;2.70;;;;;;;19.41;43.86;98899.53;4987654;28;20198;-23
2024/02/02 09:30:17;;;;;;;4.03;2.60;;;;;;;19.40;44.21;98908.84;5013414;28;20205;-25
2024/02/02 09:32:44;;;;;;;3.83;2.73;;;;;;;19.44;44.15;98908.25;4998558;28;20226;-25
2024/02/02 09:35:41;;;;;;;4.20;2.67;;;;;;;19.44;44.43;98910.78;5024095;28;20206;-25
2024/02/02 09:38:08;;;;;;;4.23;2.90;;;;;;;19.44;44.48;98913.34;5015096;28;20201;-28
2024/02/02 09:41:05;;;;;;;7.67;3.00;;;;;;;19.44;44.45;98910.78;5003729;28;20229;-24
2024/02/02 09:43:41;;;;;;;3.83;2.83;;;;;;;19.45;44.44;98921.88;5028195;28;20243;-24
2024/02/02 09:46:23;;;;;;;4.97;2.97;;;;;;;19.39;44.48;98922.38;5022996;28;20201;-25
2024/02/02 09:49:08;;;;;;;6.07;2.77;;;;;;;19.43;44.61;98934.53;5013258;28;20255;-24
2024/02/02 09:52:03;;;;;;;3.87;2.83;;;;;;;19.42;44.84;98930.19;5030626;28;20229;-25
2024/02/02 09:54:35;;;;;;;4.43;2.80;;;;;;;19.42;44.63;98932.75;5012485;28;20240;-24
2024/02/02 09:57:03;;;;;;;3.17;2.50;;;;;;;19.42;44.54;98916.59;5026175;28;20205;-24
2024/02/02 09:59:44;;;;;;;4.10;2.57;;;;;;;19.39;44.45;98907.06;5014651;28;20284;-25
2024/02/02 10:02:23;;;;;;;4.30;2.67;;;;;;;19.42;44.44;98911.50;4998798;28;20224;-24
2024/02/02 10:05:17;;;;;;;3.23;2.40;;;;;;;19.42;44.54;98920.00;5027464;28;20258;-24
2024/02/02 10:08:02;;;;;;;3.20;2.40;;;;;;;19.44;44.52;98925.19;5024028;28;20198;-25
2024/02/02 10:10:54;;;;;;;2.80;2.40;;;;;;;19.44;44.45;98932.84;5009450;28;20194;-24
2024/02/02 10:13:48;;;;;;;2.80;2.43;;;;;;;19.44;44.56;98933.72;5031488;28;20253;-25
2024/02/02 10:16:22;;;;;;;3.33;2.47;;;;;;;19.43;44.66;98936.19;5025520;28;20214;-25
2024/02/02 10:19:13;;;;;;;3.30;2.63;;;;;;;19.45;44.79;98944.81;5002722;28;20256;-25
2024/02/02 10:22:03;;;;;;;4.73;2.40;;;;;;;19.44;44.85;98949.03;5023650;28;20255;-25
2024/02/02 10:24:57;;;;;;;3.13;2.40;;;;;;;19.44;44.80;98943.94;5002308;28;20225;-23
2024/02/02 10:27:30;;;;;;;3.13;2.60;;;;;;;19.43;44.88;98942.19;5004053;28;20711;-24
2024/02/02 10:30:12;;;;;;;3.10;2.30;;;;;;;19.43;45.39;98938.75;5018792;28;20621;-25
2024/02/02 10:33:15;;;;;;;2.70;2.30;;;;;;;19.42;44.93;98930.19;5002063;28;20222;-25
2024/02/02 10:35:52;;;;;;;3.67;2.83;;;;;;;19.42;44.81;98925.09;5010256;28;20737;-24
2024/02/02 10:38:26;;;;;;;2.93;2.37;;;;;;;19.43;44.86;98926.88;5018996;28;20623;-25
2024/02/02 10:41:20;;;;;;;3.50;2.60;;;;;;;19.43;44.86;98910.69;4988560;28;20583;-25
2024/02/02 10:44:05;;;;;;;2.93;2.40;;;;;;;19.44;44.88;98926.09;5010389;28;20225;-24
2024/02/02 10:46:38;;;;;;;3.13;2.43;;;;;;;19.44;44.63;98925.19;5013410;28;20660;-24
2024/02/02 10:49:23;;;;;;;5.13;2.60;;;;;;;19.44;45.40;98923.53;4993243;28;20210;-24
2024/02/02 10:52:14;;;;;;;2.90;2.63;;;;;;;19.44;45.02;98923.53;5019392;28;20277;-25
2024/02/02 10:54:52;;;;;;;2.40;2.20;;;;;;;19.45;45.05;98912.53;5011867;28;20287;-24
2024/02/02 10:57:36;;;;;;;3.20;2.60;;;;;;;19.44;44.97;98905.69;5010745;28;20306;-24
2024/02/02 11:00:07;;;;;;;3.03;2.30;;;;;;;19.44;45.42;98889.50;5006583;28;20229;-25
2024/02/02 11:02:55;;;;;;;3.40;2.27;;;;;;;19.45;44.93;98893.84;5027479;28;20290;-24
2024/02/02 11:05:28;;;;;;;2.27;2.07;;;;;;;19.44;45.05;98884.41;5021569;28;20572;-24
2024/02/02 11:08:06;;;;;;;2.47;2.27;;;;;;;19.43;45.10;98868.25;4999309;28;20668;-26
2024/02/02 11:11:01;;;;;;;2.90;2.10;;;;;;;19.43;45.06;98859.72;5028634;28;20206;-25
2024/02/02 11:13:35;;;;;;;2.97;2.47;;;;;;;19.41;45.08;98857.06;4996197;28;20221;-25
2024/02/02 11:16:17;;;;;;;2.40;2.17;;;;;;;19.43;45.10;98852.06;5005983;28;20202;-25
2024/02/02 11:19:06;;;;;;;2.20;2.00;;;;;;;19.41;45.06;98846.88;5012821;28;20213;-25
2024/02/02 11:21:57;;;;;;;3.07;2.20;;;;;;;19.44;44.94;98841.06;5015816;28;20200;-24
2024/02/02 11:24:53;;;;;;;2.40;2.13;;;;;;;19.45;45.07;98836.03;5022088;28;20712;-25
2024/02/02 11:27:25;;;;;;;2.73;2.33;;;;;;;19.45;45.19;98838.59;5023956;28;20645;-26
2024/02/02 11:30:07;;;;;;;2.50;2.10;;;;;;;19.46;45.25;98844.59;5016814;28;20201;-25
2024/02/02 11:33:03;;;;;;;3.60;2.10;;;;;;;19.45;45.10;98838.59;4988216;28;20279;-25
2024/02/02 11:36:23;;;;;;;2.37;2.10;;;;;;;19.46;45.17;98836.94;5015474;28;20202;-25
2024/02/02 11:39:14;;;;;;;2.80;2.47;;;;;;;19.45;45.13;98825.84;4981695;28;20201;-24
2024/02/02 11:41:41;;;;;;;2.00;1.90;;;;;;;19.44;45.55;98820.66;5026332;28;20685;-24
2024/02/02 11:44:09;;;;;;;2.23;2.03;;;;;;;19.42;45.18;98812.06;4997874;28;20759;-24
2024/02/02 11:46:36;;;;;;;2.47;2.20;;;;;;;19.44;45.28;98820.66;5009934;28;20637;-23